sensor_id;sensor_type;location;lat;lon;timestamp;P1;durP1;ratioP1;P2;durP2;ratioP2
11473;SDS011;5793;52.238;13.438;2023-10-08T00:00:45;2.33;;;1.23;;
11473;SDS011;5793;52.238;13.438;2023-10-08T00:03:14;2.97;;;1.40;;
11473;SDS011;5793;52.238;13.438;2023-10-08T00:05:43;3.10;;;1.30;;
11473;SDS011;5793;52.238;13.438;2023-10-08T00:08:13;2.90;;;1.33;;
11473;SDS011;5793;52.238;13.438;2023-10-08T00:10:43;3.90;;;1.30;;
11473;SDS011;5793;52.238;13.438;2023-10-08T00:13:11;3.37;;;1.40;;
11473;SDS011;5793;52.238;13.438;2023-10-08T00:15:42;4.37;;;1.40;;
11473;SDS011;5793;52.238;13.438;2023-10-08T00:18:19;3.13;;;1.70;;
11473;SDS011;5793;52.238;13.438;2023-10-08T00:20:49;3.77;;;1.70;;
11473;SDS011;5793;52.238;13.438;2023-10-08T00:23:26;3.00;;;1.40;;
11473;SDS011;5793;52.238;13.438;2023-10-08T00:25:54;3.40;;;1.40;;
11473;SDS011;5793;52.238;13.438;2023-10-08T00:28:22;3.30;;;1.43;;
11473;SDS011;5793;52.238;13.438;2023-10-08T00:30:50;2.73;;;1.30;;
11473;SDS011;5793;52.238;13.438;2023-10-08T00:33:20;3.05;;;1.35;;
11473;SDS011;5793;52.238;13.438;2023-10-08T00:35:48;3.17;;;1.50;;
11473;SDS011;5793;52.238;13.438;2023-10-08T00:38:16;2.47;;;1.23;;
11473;SDS011;5793;52.238;13.438;2023-10-08T00:40:48;4.97;;;1.60;;
11473;SDS011;5793;52.238;13.438;2023-10-08T00:45:59;6.30;;;1.80;;
11473;SDS011;5793;52.238;13.438;2023-10-08T00:48:27;3.97;;;1.90;;
11473;SDS011;5793;52.238;13.438;2023-10-08T00:51:02;2.50;;;1.50;;
11473;SDS011;5793;52.238;13.438;2023-10-08T00:53:41;3.17;;;1.57;;
11473;SDS011;5793;52.238;13.438;2023-10-08T00:56:11;2.70;;;1.37;;
11473;SDS011;5793;52.238;13.438;2023-10-08T00:58:40;2.10;;;1.13;;
11473;SDS011;5793;52.238;13.438;2023-10-08T01:01:12;2.47;;;1.17;;
11473;SDS011;5793;52.238;13.438;2023-10-08T01:03:43;2.37;;;1.30;;
11473;SDS011;5793;52.238;13.438;2023-10-08T01:06:11;5.67;;;1.87;;
11473;SDS011;5793;52.238;13.438;2023-10-08T01:08:41;2.17;;;1.70;;
11473;SDS011;5793;52.238;13.438;2023-10-08T01:11:18;2.63;;;1.33;;
11473;SDS011;5793;52.238;13.438;2023-10-08T01:13:48;2.27;;;1.43;;
11473;SDS011;5793;52.238;13.438;2023-10-08T01:16:16;3.17;;;1.13;;
11473;SDS011;5793;52.238;13.438;2023-10-08T01:18:44;1.73;;;1.20;;
11473;SDS011;5793;52.238;13.438;2023-10-08T01:21:17;2.10;;;1.30;;
11473;SDS011;5793;52.238;13.438;2023-10-08T01:24:02;2.57;;;1.40;;
11473;SDS011;5793;52.238;13.438;2023-10-08T01:26:32;2.67;;;1.30;;
11473;SDS011;5793;52.238;13.438;2023-10-08T01:29:08;4.40;;;1.77;;
11473;SDS011;5793;52.238;13.438;2023-10-08T01:31:45;3.17;;;1.90;;
11473;SDS011;5793;52.238;13.438;2023-10-08T01:34:15;2.97;;;1.50;;
11473;SDS011;5793;52.238;13.438;2023-10-08T01:36:44;2.93;;;1.40;;
11473;SDS011;5793;52.238;13.438;2023-10-08T01:39:13;3.03;;;1.30;;
11473;SDS011;5793;52.238;13.438;2023-10-08T01:41:43;2.47;;;1.30;;
11473;SDS011;5793;52.238;13.438;2023-10-08T01:44:13;3.73;;;1.47;;
11473;SDS011;5793;52.238;13.438;2023-10-08T01:46:41;3.77;;;1.50;;
11473;SDS011;5793;52.238;13.438;2023-10-08T01:49:10;2.90;;;1.33;;
11473;SDS011;5793;52.238;13.438;2023-10-08T01:51:41;2.73;;;1.20;;
11473;SDS011;5793;52.238;13.438;2023-10-08T01:54:14;4.17;;;1.50;;
11473;SDS011;5793;52.238;13.438;2023-10-08T01:56:44;2.17;;;1.20;;
11473;SDS011;5793;52.238;13.438;2023-10-08T01:59:13;2.50;;;1.40;;
11473;SDS011;5793;52.238;13.438;2023-10-08T02:01:42;2.87;;;1.40;;
11473;SDS011;5793;52.238;13.438;2023-10-08T02:04:12;3.87;;;1.30;;
11473;SDS011;5793;52.238;13.438;2023-10-08T02:06:43;4.33;;;1.67;;
11473;SDS011;5793;52.238;13.438;2023-10-08T02:09:12;4.20;;;1.37;;
11473;SDS011;5793;52.238;13.438;2023-10-08T02:11:43;2.40;;;1.47;;
11473;SDS011;5793;52.238;13.438;2023-10-08T02:14:17;4.60;;;1.70;;
11473;SDS011;5793;52.238;13.438;2023-10-08T02:16:45;4.17;;;1.67;;
11473;SDS011;5793;52.238;13.438;2023-10-08T02:19:13;3.40;;;1.73;;
11473;SDS011;5793;52.238;13.438;2023-10-08T02:21:44;5.33;;;1.80;;
11473;SDS011;5793;52.238;13.438;2023-10-08T02:24:13;4.10;;;1.73;;
11473;SDS011;5793;52.238;13.438;2023-10-08T02:26:41;4.77;;;1.77;;
11473;SDS011;5793;52.238;13.438;2023-10-08T02:29:11;3.90;;;1.47;;
11473;SDS011;5793;52.238;13.438;2023-10-08T02:31:39;6.13;;;1.90;;
11473;SDS011;5793;52.238;13.438;2023-10-08T02:34:07;7.13;;;2.38;;
11473;SDS011;5793;52.238;13.438;2023-10-08T02:36:36;5.82;;;1.65;;
11473;SDS011;5793;52.238;13.438;2023-10-08T02:39:04;5.63;;;2.10;;
11473;SDS011;5793;52.238;13.438;2023-10-08T02:41:40;4.00;;;1.73;;
11473;SDS011;5793;52.238;13.438;2023-10-08T02:44:08;4.20;;;1.70;;
11473;SDS011;5793;52.238;13.438;2023-10-08T02:46:40;6.03;;;2.10;;
11473;SDS011;5793;52.238;13.438;2023-10-08T02:49:08;6.30;;;1.60;;
11473;SDS011;5793;52.238;13.438;2023-10-08T02:51:39;5.27;;;1.90;;
11473;SDS011;5793;52.238;13.438;2023-10-08T02:54:07;5.70;;;2.37;;
11473;SDS011;5793;52.238;13.438;2023-10-08T02:56:43;6.53;;;1.90;;
11473;SDS011;5793;52.238;13.438;2023-10-08T02:59:12;4.40;;;1.97;;
11473;SDS011;5793;52.238;13.438;2023-10-08T03:01:42;4.33;;;2.10;;
11473;SDS011;5793;52.238;13.438;2023-10-08T03:04:10;5.83;;;2.20;;
11473;SDS011;5793;52.238;13.438;2023-10-08T03:06:45;4.90;;;2.57;;
11473;SDS011;5793;52.238;13.438;2023-10-08T03:09:17;3.93;;;2.20;;
11473;SDS011;5793;52.238;13.438;2023-10-08T03:11:50;7.40;;;2.00;;
11473;SDS011;5793;52.238;13.438;2023-10-08T03:14:19;4.67;;;2.07;;
11473;SDS011;5793;52.238;13.438;2023-10-08T03:16:51;6.93;;;2.27;;
11473;SDS011;5793;52.238;13.438;2023-10-08T03:19:21;4.40;;;2.23;;
11473;SDS011;5793;52.238;13.438;2023-10-08T03:21:50;3.87;;;2.40;;
11473;SDS011;5793;52.238;13.438;2023-10-08T03:24:23;8.13;;;2.50;;
11473;SDS011;5793;52.238;13.438;2023-10-08T03:27:03;5.63;;;2.50;;
11473;SDS011;5793;52.238;13.438;2023-10-08T03:29:39;5.47;;;2.53;;
11473;SDS011;5793;52.238;13.438;2023-10-08T03:32:11;5.47;;;2.33;;
11473;SDS011;5793;52.238;13.438;2023-10-08T03:34:45;7.93;;;2.53;;
11473;SDS011;5793;52.238;13.438;2023-10-08T03:37:15;5.97;;;2.67;;
11473;SDS011;5793;52.238;13.438;2023-10-08T03:39:47;4.53;;;2.07;;
11473;SDS011;5793;52.238;13.438;2023-10-08T03:42:19;5.53;;;2.70;;
11473;SDS011;5793;52.238;13.438;2023-10-08T03:44:48;5.27;;;2.50;;
11473;SDS011;5793;52.238;13.438;2023-10-08T03:47:19;5.53;;;2.30;;
11473;SDS011;5793;52.238;13.438;2023-10-08T03:49:49;4.47;;;2.50;;
11473;SDS011;5793;52.238;13.438;2023-10-08T03:52:17;5.93;;;2.60;;
11473;SDS011;5793;52.238;13.438;2023-10-08T03:54:50;6.00;;;2.97;;
11473;SDS011;5793;52.238;13.438;2023-10-08T03:57:31;9.10;;;2.80;;
11473;SDS011;5793;52.238;13.438;2023-10-08T04:00:08;6.20;;;2.67;;
11473;SDS011;5793;52.238;13.438;2023-10-08T04:02:45;7.83;;;2.80;;
11473;SDS011;5793;52.238;13.438;2023-10-08T04:05:21;8.18;;;2.63;;
11473;SDS011;5793;52.238;13.438;2023-10-08T04:07:58;3.43;;;2.10;;
11473;SDS011;5793;52.238;13.438;2023-10-08T04:10:50;4.40;;;2.17;;
11473;SDS011;5793;52.238;13.438;2023-10-08T04:13:48;5.10;;;2.57;;
11473;SDS011;5793;52.238;13.438;2023-10-08T04:16:18;5.90;;;2.80;;
11473;SDS011;5793;52.238;13.438;2023-10-08T04:18:48;4.05;;;2.60;;
11473;SDS011;5793;52.238;13.438;2023-10-08T04:21:21;5.43;;;2.50;;
11473;SDS011;5793;52.238;13.438;2023-10-08T04:23:53;4.68;;;2.60;;
11473;SDS011;5793;52.238;13.438;2023-10-08T04:26:24;6.30;;;2.60;;
11473;SDS011;5793;52.238;13.438;2023-10-08T04:28:52;4.63;;;2.30;;
11473;SDS011;5793;52.238;13.438;2023-10-08T04:31:24;10.40;;;2.88;;
11473;SDS011;5793;52.238;13.438;2023-10-08T04:33:56;6.60;;;2.40;;
11473;SDS011;5793;52.238;13.438;2023-10-08T04:36:27;5.75;;;2.65;;
11473;SDS011;5793;52.238;13.438;2023-10-08T04:38:55;5.23;;;2.60;;
11473;SDS011;5793;52.238;13.438;2023-10-08T04:41:29;4.03;;;2.50;;
11473;SDS011;5793;52.238;13.438;2023-10-08T04:43:57;7.70;;;2.72;;
11473;SDS011;5793;52.238;13.438;2023-10-08T04:46:29;5.83;;;3.00;;
11473;SDS011;5793;52.238;13.438;2023-10-08T04:49:15;9.27;;;3.33;;
11473;SDS011;5793;52.238;13.438;2023-10-08T04:51:54;7.60;;;3.00;;
11473;SDS011;5793;52.238;13.438;2023-10-08T04:54:26;4.43;;;2.37;;
11473;SDS011;5793;52.238;13.438;2023-10-08T04:56:57;5.90;;;2.73;;
11473;SDS011;5793;52.238;13.438;2023-10-08T04:59:26;7.57;;;2.67;;
11473;SDS011;5793;52.238;13.438;2023-10-08T05:02:01;5.73;;;2.53;;
11473;SDS011;5793;52.238;13.438;2023-10-08T05:04:47;6.50;;;3.03;;
11473;SDS011;5793;52.238;13.438;2023-10-08T05:07:49;7.97;;;2.73;;
11473;SDS011;5793;52.238;13.438;2023-10-08T05:10:44;6.60;;;2.77;;
11473;SDS011;5793;52.238;13.438;2023-10-08T05:13:27;7.03;;;2.93;;
11473;SDS011;5793;52.238;13.438;2023-10-08T05:15:59;8.50;;;2.90;;
11473;SDS011;5793;52.238;13.438;2023-10-08T05:18:45;7.20;;;2.60;;
11473;SDS011;5793;52.238;13.438;2023-10-08T05:21:34;8.03;;;2.77;;
11473;SDS011;5793;52.238;13.438;2023-10-08T05:24:18;6.43;;;2.50;;
11473;SDS011;5793;52.238;13.438;2023-10-08T05:26:55;6.70;;;2.80;;
11473;SDS011;5793;52.238;13.438;2023-10-08T05:29:47;8.10;;;2.43;;
11473;SDS011;5793;52.238;13.438;2023-10-08T05:32:35;8.53;;;2.73;;
11473;SDS011;5793;52.238;13.438;2023-10-08T05:35:18;7.70;;;2.90;;
11473;SDS011;5793;52.238;13.438;2023-10-08T05:38:06;5.23;;;2.80;;
11473;SDS011;5793;52.238;13.438;2023-10-08T05:40:42;10.33;;;3.40;;
11473;SDS011;5793;52.238;13.438;2023-10-08T05:43:29;8.40;;;2.97;;
11473;SDS011;5793;52.238;13.438;2023-10-08T05:46:21;8.20;;;3.10;;
11473;SDS011;5793;52.238;13.438;2023-10-08T05:49:07;5.47;;;3.00;;
11473;SDS011;5793;52.238;13.438;2023-10-08T05:51:52;6.80;;;3.27;;
11473;SDS011;5793;52.238;13.438;2023-10-08T05:54:53;9.87;;;3.17;;
11473;SDS011;5793;52.238;13.438;2023-10-08T05:57:38;6.60;;;3.37;;
11473;SDS011;5793;52.238;13.438;2023-10-08T06:00:07;5.60;;;3.10;;
11473;SDS011;5793;52.238;13.438;2023-10-08T06:02:52;8.27;;;3.10;;
11473;SDS011;5793;52.238;13.438;2023-10-08T06:05:59;6.30;;;2.90;;
11473;SDS011;5793;52.238;13.438;2023-10-08T06:08:45;7.70;;;3.73;;
11473;SDS011;5793;52.238;13.438;2023-10-08T06:11:20;9.93;;;3.93;;
11473;SDS011;5793;52.238;13.438;2023-10-08T06:14:08;9.00;;;3.50;;
11473;SDS011;5793;52.238;13.438;2023-10-08T06:16:54;8.50;;;3.43;;
11473;SDS011;5793;52.238;13.438;2023-10-08T06:19:39;6.63;;;3.10;;
11473;SDS011;5793;52.238;13.438;2023-10-08T06:22:07;8.33;;;3.43;;
11473;SDS011;5793;52.238;13.438;2023-10-08T06:24:34;7.43;;;3.10;;
11473;SDS011;5793;52.238;13.438;2023-10-08T06:27:06;6.83;;;3.00;;
11473;SDS011;5793;52.238;13.438;2023-10-08T06:29:34;6.23;;;2.97;;
11473;SDS011;5793;52.238;13.438;2023-10-08T06:32:02;6.40;;;3.27;;
11473;SDS011;5793;52.238;13.438;2023-10-08T06:34:33;6.67;;;3.37;;
11473;SDS011;5793;52.238;13.438;2023-10-08T06:37:01;12.67;;;3.70;;
11473;SDS011;5793;52.238;13.438;2023-10-08T06:39:32;9.30;;;3.30;;
11473;SDS011;5793;52.238;13.438;2023-10-08T06:42:15;8.63;;;3.40;;
11473;SDS011;5793;52.238;13.438;2023-10-08T06:44:44;5.67;;;3.40;;
11473;SDS011;5793;52.238;13.438;2023-10-08T06:47:12;7.50;;;3.42;;
11473;SDS011;5793;52.238;13.438;2023-10-08T06:49:42;4.10;;;3.00;;
11473;SDS011;5793;52.238;13.438;2023-10-08T06:52:10;8.60;;;3.27;;
11473;SDS011;5793;52.238;13.438;2023-10-08T06:54:40;8.65;;;3.85;;
11473;SDS011;5793;52.238;13.438;2023-10-08T06:57:08;7.60;;;3.00;;
11473;SDS011;5793;52.238;13.438;2023-10-08T06:59:41;9.20;;;3.23;;
11473;SDS011;5793;52.238;13.438;2023-10-08T07:02:09;7.87;;;3.40;;
11473;SDS011;5793;52.238;13.438;2023-10-08T07:04:37;8.03;;;2.90;;
11473;SDS011;5793;52.238;13.438;2023-10-08T07:07:08;9.83;;;3.00;;
11473;SDS011;5793;52.238;13.438;2023-10-08T07:09:38;8.63;;;3.03;;
11473;SDS011;5793;52.238;13.438;2023-10-08T07:12:06;9.25;;;3.05;;
11473;SDS011;5793;52.238;13.438;2023-10-08T07:14:41;7.05;;;3.38;;
11473;SDS011;5793;52.238;13.438;2023-10-08T07:17:10;5.32;;;2.65;;
11473;SDS011;5793;52.238;13.438;2023-10-08T07:19:46;6.72;;;2.70;;
11473;SDS011;5793;52.238;13.438;2023-10-08T07:22:17;5.07;;;2.67;;
11473;SDS011;5793;52.238;13.438;2023-10-08T07:24:49;7.83;;;3.10;;
11473;SDS011;5793;52.238;13.438;2023-10-08T07:27:18;9.82;;;3.00;;
11473;SDS011;5793;52.238;13.438;2023-10-08T07:29:49;6.30;;;3.10;;
11473;SDS011;5793;52.238;13.438;2023-10-08T07:32:22;7.97;;;3.00;;
11473;SDS011;5793;52.238;13.438;2023-10-08T07:34:52;22.13;;;18.73;;
11473;SDS011;5793;52.238;13.438;2023-10-08T07:37:24;9.00;;;4.67;;
11473;SDS011;5793;52.238;13.438;2023-10-08T07:39:53;9.67;;;2.90;;
11473;SDS011;5793;52.238;13.438;2023-10-08T07:42:21;7.97;;;3.13;;
11473;SDS011;5793;52.238;13.438;2023-10-08T07:44:51;4.80;;;2.63;;
11473;SDS011;5793;52.238;13.438;2023-10-08T07:47:21;5.33;;;2.43;;
11473;SDS011;5793;52.238;13.438;2023-10-08T07:49:49;5.20;;;2.30;;
11473;SDS011;5793;52.238;13.438;2023-10-08T07:52:18;6.47;;;2.30;;
11473;SDS011;5793;52.238;13.438;2023-10-08T07:54:47;4.33;;;2.00;;
11473;SDS011;5793;52.238;13.438;2023-10-08T07:57:15;5.07;;;2.10;;
11473;SDS011;5793;52.238;13.438;2023-10-08T07:59:45;4.97;;;2.38;;
11473;SDS011;5793;52.238;13.438;2023-10-08T08:02:16;8.30;;;2.22;;
11473;SDS011;5793;52.238;13.438;2023-10-08T08:04:49;6.10;;;2.20;;
11473;SDS011;5793;52.238;13.438;2023-10-08T08:07:19;7.40;;;2.10;;
11473;SDS011;5793;52.238;13.438;2023-10-08T08:09:48;4.67;;;1.90;;
11473;SDS011;5793;52.238;13.438;2023-10-08T08:12:19;3.80;;;1.80;;
11473;SDS011;5793;52.238;13.438;2023-10-08T08:14:49;3.63;;;1.63;;
11473;SDS011;5793;52.238;13.438;2023-10-08T08:17:18;4.38;;;1.80;;
11473;SDS011;5793;52.238;13.438;2023-10-08T08:19:49;2.77;;;1.60;;
11473;SDS011;5793;52.238;13.438;2023-10-08T08:22:19;3.27;;;1.63;;
11473;SDS011;5793;52.238;13.438;2023-10-08T08:24:49;4.72;;;2.05;;
11473;SDS011;5793;52.238;13.438;2023-10-08T08:27:24;2.85;;;1.42;;
11473;SDS011;5793;52.238;13.438;2023-10-08T08:29:58;3.97;;;1.70;;
11473;SDS011;5793;52.238;13.438;2023-10-08T08:32:37;2.47;;;1.55;;
11473;SDS011;5793;52.238;13.438;2023-10-08T08:35:07;3.88;;;1.70;;
11473;SDS011;5793;52.238;13.438;2023-10-08T08:37:36;4.50;;;1.73;;
11473;SDS011;5793;52.238;13.438;2023-10-08T08:40:06;1.50;;;1.20;;
11473;SDS011;5793;52.238;13.438;2023-10-08T08:42:35;3.60;;;1.20;;
11473;SDS011;5793;52.238;13.438;2023-10-08T08:45:06;2.20;;;1.23;;
11473;SDS011;5793;52.238;13.438;2023-10-08T08:47:39;3.33;;;1.40;;
11473;SDS011;5793;52.238;13.438;2023-10-08T08:50:09;2.53;;;1.38;;
11473;SDS011;5793;52.238;13.438;2023-10-08T08:52:38;2.60;;;1.23;;
11473;SDS011;5793;52.238;13.438;2023-10-08T08:55:07;4.65;;;1.40;;
11473;SDS011;5793;52.238;13.438;2023-10-08T08:57:41;3.55;;;1.55;;
11473;SDS011;5793;52.238;13.438;2023-10-08T09:00:10;4.47;;;1.38;;
11473;SDS011;5793;52.238;13.438;2023-10-08T09:02:41;3.45;;;1.52;;
11473;SDS011;5793;52.238;13.438;2023-10-08T09:05:11;2.17;;;1.20;;
11473;SDS011;5793;52.238;13.438;2023-10-08T09:07:53;5.13;;;1.60;;
11473;SDS011;5793;52.238;13.438;2023-10-08T09:10:22;2.92;;;1.40;;
11473;SDS011;5793;52.238;13.438;2023-10-08T09:12:54;2.50;;;1.23;;
11473;SDS011;5793;52.238;13.438;2023-10-08T09:15:24;3.78;;;1.42;;
11473;SDS011;5793;52.238;13.438;2023-10-08T09:17:54;3.72;;;1.58;;
11473;SDS011;5793;52.238;13.438;2023-10-08T09:20:23;4.43;;;1.30;;
11473;SDS011;5793;52.238;13.438;2023-10-08T09:23:05;1.45;;;1.05;;
11473;SDS011;5793;52.238;13.438;2023-10-08T09:25:34;3.60;;;1.30;;
11473;SDS011;5793;52.238;13.438;2023-10-08T09:28:02;2.80;;;1.38;;
11473;SDS011;5793;52.238;13.438;2023-10-08T09:30:34;1.33;;;0.93;;
11473;SDS011;5793;52.238;13.438;2023-10-08T09:33:06;2.55;;;1.15;;
11473;SDS011;5793;52.238;13.438;2023-10-08T09:35:34;3.95;;;1.20;;
11473;SDS011;5793;52.238;13.438;2023-10-08T09:38:03;2.20;;;1.00;;
11473;SDS011;5793;52.238;13.438;2023-10-08T09:40:35;2.60;;;1.20;;
11473;SDS011;5793;52.238;13.438;2023-10-08T09:43:04;3.58;;;1.25;;
11473;SDS011;5793;52.238;13.438;2023-10-08T09:45:35;1.13;;;1.00;;
11473;SDS011;5793;52.238;13.438;2023-10-08T09:48:07;1.70;;;1.02;;
11473;SDS011;5793;52.238;13.438;2023-10-08T09:50:40;1.85;;;1.52;;
11473;SDS011;5793;52.238;13.438;2023-10-08T09:53:09;1.90;;;1.10;;
11473;SDS011;5793;52.238;13.438;2023-10-08T09:55:45;3.65;;;1.23;;
11473;SDS011;5793;52.238;13.438;2023-10-08T09:58:16;2.50;;;1.20;;
11473;SDS011;5793;52.238;13.438;2023-10-08T10:00:44;1.35;;;1.08;;
11473;SDS011;5793;52.238;13.438;2023-10-08T10:03:16;2.00;;;1.30;;
11473;SDS011;5793;52.238;13.438;2023-10-08T10:05:48;2.53;;;1.20;;
11473;SDS011;5793;52.238;13.438;2023-10-08T10:08:16;1.42;;;1.15;;
11473;SDS011;5793;52.238;13.438;2023-10-08T10:10:46;2.63;;;1.27;;
11473;SDS011;5793;52.238;13.438;2023-10-08T10:13:16;1.95;;;1.10;;
11473;SDS011;5793;52.238;13.438;2023-10-08T10:15:44;2.53;;;1.27;;
11473;SDS011;5793;52.238;13.438;2023-10-08T10:18:13;1.40;;;1.02;;
11473;SDS011;5793;52.238;13.438;2023-10-08T10:20:45;2.28;;;1.30;;
11473;SDS011;5793;52.238;13.438;2023-10-08T10:23:34;1.27;;;0.93;;
11473;SDS011;5793;52.238;13.438;2023-10-08T10:26:03;1.95;;;1.20;;
11473;SDS011;5793;52.238;13.438;2023-10-08T10:28:31;2.03;;;1.00;;
11473;SDS011;5793;52.238;13.438;2023-10-08T10:30:59;1.20;;;1.10;;
11473;SDS011;5793;52.238;13.438;2023-10-08T10:33:29;2.03;;;1.00;;
11473;SDS011;5793;52.238;13.438;2023-10-08T10:36:01;2.83;;;1.25;;
11473;SDS011;5793;52.238;13.438;2023-10-08T10:38:31;2.22;;;1.13;;
11473;SDS011;5793;52.238;13.438;2023-10-08T10:41:03;2.08;;;1.25;;
11473;SDS011;5793;52.238;13.438;2023-10-08T10:43:35;1.42;;;1.10;;
11473;SDS011;5793;52.238;13.438;2023-10-08T10:46:06;1.25;;;0.90;;
11473;SDS011;5793;52.238;13.438;2023-10-08T10:48:55;1.65;;;1.13;;
11473;SDS011;5793;52.238;13.438;2023-10-08T10:51:46;2.22;;;1.10;;
11473;SDS011;5793;52.238;13.438;2023-10-08T10:54:15;3.47;;;1.10;;
11473;SDS011;5793;52.238;13.438;2023-10-08T10:56:50;1.73;;;1.10;;
11473;SDS011;5793;52.238;13.438;2023-10-08T10:59:29;2.90;;;1.38;;
11473;SDS011;5793;52.238;13.438;2023-10-08T11:02:06;1.75;;;1.20;;
11473;SDS011;5793;52.238;13.438;2023-10-08T11:04:35;1.60;;;1.30;;
11473;SDS011;5793;52.238;13.438;2023-10-08T11:07:15;3.08;;;1.10;;
11473;SDS011;5793;52.238;13.438;2023-10-08T11:09:46;2.30;;;1.33;;
11473;SDS011;5793;52.238;13.438;2023-10-08T11:12:14;4.28;;;1.40;;
11473;SDS011;5793;52.238;13.438;2023-10-08T11:14:49;2.50;;;1.23;;
11473;SDS011;5793;52.238;13.438;2023-10-08T11:17:22;1.77;;;1.13;;
11473;SDS011;5793;52.238;13.438;2023-10-08T11:19:52;2.42;;;1.10;;
11473;SDS011;5793;52.238;13.438;2023-10-08T11:22:21;1.55;;;1.05;;
11473;SDS011;5793;52.238;13.438;2023-10-08T11:24:49;1.50;;;1.20;;
11473;SDS011;5793;52.238;13.438;2023-10-08T11:27:20;1.95;;;1.10;;
11473;SDS011;5793;52.238;13.438;2023-10-08T11:29:56;1.27;;;1.17;;
11473;SDS011;5793;52.238;13.438;2023-10-08T11:32:26;2.15;;;1.05;;
11473;SDS011;5793;52.238;13.438;2023-10-08T11:34:59;1.88;;;1.20;;
11473;SDS011;5793;52.238;13.438;2023-10-08T11:37:45;2.15;;;1.27;;
11473;SDS011;5793;52.238;13.438;2023-10-08T11:40:21;2.28;;;1.40;;
11473;SDS011;5793;52.238;13.438;2023-10-08T11:42:55;2.58;;;1.30;;
11473;SDS011;5793;52.238;13.438;2023-10-08T11:45:24;2.20;;;1.30;;
11473;SDS011;5793;52.238;13.438;2023-10-08T11:47:54;1.65;;;1.15;;
11473;SDS011;5793;52.238;13.438;2023-10-08T11:50:30;1.52;;;1.25;;
11473;SDS011;5793;52.238;13.438;2023-10-08T11:52:59;2.03;;;1.15;;
11473;SDS011;5793;52.238;13.438;2023-10-08T11:55:30;1.80;;;1.20;;
11473;SDS011;5793;52.238;13.438;2023-10-08T11:58:02;2.17;;;1.17;;
11473;SDS011;5793;52.238;13.438;2023-10-08T12:00:37;1.23;;;1.00;;
11473;SDS011;5793;52.238;13.438;2023-10-08T12:03:11;3.05;;;1.50;;
11473;SDS011;5793;52.238;13.438;2023-10-08T12:05:39;2.65;;;1.50;;
11473;SDS011;5793;52.238;13.438;2023-10-08T12:08:15;1.63;;;1.17;;
11473;SDS011;5793;52.238;13.438;2023-10-08T12:10:44;1.40;;;1.13;;
11473;SDS011;5793;52.238;13.438;2023-10-08T12:13:14;3.88;;;1.30;;
11473;SDS011;5793;52.238;13.438;2023-10-08T12:15:45;1.95;;;1.20;;
11473;SDS011;5793;52.238;13.438;2023-10-08T12:18:13;2.00;;;1.30;;
11473;SDS011;5793;52.238;13.438;2023-10-08T12:20:51;1.80;;;1.30;;
11473;SDS011;5793;52.238;13.438;2023-10-08T12:23:21;2.33;;;1.20;;
11473;SDS011;5793;52.238;13.438;2023-10-08T12:25:52;2.65;;;1.25;;
11473;SDS011;5793;52.238;13.438;2023-10-08T12:28:22;2.95;;;1.13;;
11473;SDS011;5793;52.238;13.438;2023-10-08T12:30:51;2.25;;;1.40;;
11473;SDS011;5793;52.238;13.438;2023-10-08T12:33:19;1.73;;;1.20;;
11473;SDS011;5793;52.238;13.438;2023-10-08T12:35:50;1.67;;;1.17;;
11473;SDS011;5793;52.238;13.438;2023-10-08T12:38:20;1.63;;;1.15;;
11473;SDS011;5793;52.238;13.438;2023-10-08T12:40:49;6.13;;;1.50;;
11473;SDS011;5793;52.238;13.438;2023-10-08T12:43:20;2.03;;;1.30;;
11473;SDS011;5793;52.238;13.438;2023-10-08T12:45:48;3.03;;;1.10;;
11473;SDS011;5793;52.238;13.438;2023-10-08T12:48:19;2.05;;;1.30;;
11473;SDS011;5793;52.238;13.438;2023-10-08T12:50:47;1.23;;;0.90;;
11473;SDS011;5793;52.238;13.438;2023-10-08T12:53:25;3.42;;;1.20;;
11473;SDS011;5793;52.238;13.438;2023-10-08T12:56:01;1.92;;;1.33;;
11473;SDS011;5793;52.238;13.438;2023-10-08T12:58:34;2.70;;;1.20;;
11473;SDS011;5793;52.238;13.438;2023-10-08T13:01:08;3.85;;;1.20;;
11473;SDS011;5793;52.238;13.438;2023-10-08T13:03:36;2.30;;;1.40;;
11473;SDS011;5793;52.238;13.438;2023-10-08T13:06:08;3.35;;;1.27;;
11473;SDS011;5793;52.238;13.438;2023-10-08T13:08:42;1.60;;;1.20;;
11473;SDS011;5793;52.238;13.438;2023-10-08T13:11:10;1.60;;;1.08;;
11473;SDS011;5793;52.238;13.438;2023-10-08T13:13:38;2.38;;;1.20;;
11473;SDS011;5793;52.238;13.438;2023-10-08T13:16:06;1.85;;;1.20;;
11473;SDS011;5793;52.238;13.438;2023-10-08T13:18:34;1.48;;;1.00;;
11473;SDS011;5793;52.238;13.438;2023-10-08T13:21:04;2.05;;;1.30;;
11473;SDS011;5793;52.238;13.438;2023-10-08T13:23:33;1.67;;;1.20;;
11473;SDS011;5793;52.238;13.438;2023-10-08T13:26:03;1.75;;;1.10;;
11473;SDS011;5793;52.238;13.438;2023-10-08T13:28:33;3.22;;;1.20;;
11473;SDS011;5793;52.238;13.438;2023-10-08T13:31:02;2.60;;;0.95;;
11473;SDS011;5793;52.238;13.438;2023-10-08T13:33:36;1.77;;;1.00;;
11473;SDS011;5793;52.238;13.438;2023-10-08T13:36:06;1.30;;;1.00;;
11473;SDS011;5793;52.238;13.438;2023-10-08T13:38:44;1.38;;;1.00;;
11473;SDS011;5793;52.238;13.438;2023-10-08T13:41:15;1.27;;;0.85;;
11473;SDS011;5793;52.238;13.438;2023-10-08T13:43:44;1.75;;;0.90;;
11473;SDS011;5793;52.238;13.438;2023-10-08T13:46:13;1.83;;;1.08;;
11473;SDS011;5793;52.238;13.438;2023-10-08T13:48:44;1.98;;;1.30;;
11473;SDS011;5793;52.238;13.438;2023-10-08T13:51:15;1.50;;;1.10;;
11473;SDS011;5793;52.238;13.438;2023-10-08T13:53:48;1.88;;;1.42;;
11473;SDS011;5793;52.238;13.438;2023-10-08T13:56:20;3.05;;;1.23;;
11473;SDS011;5793;52.238;13.438;2023-10-08T13:58:53;1.90;;;1.10;;
11473;SDS011;5793;52.238;13.438;2023-10-08T14:01:30;1.33;;;1.15;;
11473;SDS011;5793;52.238;13.438;2023-10-08T14:04:00;2.30;;;1.00;;
11473;SDS011;5793;52.238;13.438;2023-10-08T14:06:32;3.22;;;1.23;;
11473;SDS011;5793;52.238;13.438;2023-10-08T14:09:02;2.63;;;1.20;;
11473;SDS011;5793;52.238;13.438;2023-10-08T14:11:35;1.67;;;1.20;;
11473;SDS011;5793;52.238;13.438;2023-10-08T14:14:03;1.90;;;1.20;;
11473;SDS011;5793;52.238;13.438;2023-10-08T14:16:38;1.80;;;0.90;;
11473;SDS011;5793;52.238;13.438;2023-10-08T14:19:09;2.38;;;1.17;;
11473;SDS011;5793;52.238;13.438;2023-10-08T14:21:39;1.30;;;1.00;;
11473;SDS011;5793;52.238;13.438;2023-10-08T14:24:15;1.77;;;1.40;;
11473;SDS011;5793;52.238;13.438;2023-10-08T14:26:45;1.90;;;1.20;;
11473;SDS011;5793;52.238;13.438;2023-10-08T14:29:20;3.78;;;1.40;;
11473;SDS011;5793;52.238;13.438;2023-10-08T14:31:51;3.97;;;1.65;;
11473;SDS011;5793;52.238;13.438;2023-10-08T14:34:22;2.05;;;1.10;;
11473;SDS011;5793;52.238;13.438;2023-10-08T14:37:16;1.98;;;1.27;;
11473;SDS011;5793;52.238;13.438;2023-10-08T14:40:02;2.05;;;1.40;;
11473;SDS011;5793;52.238;13.438;2023-10-08T14:42:49;2.35;;;1.17;;
11473;SDS011;5793;52.238;13.438;2023-10-08T14:45:29;1.55;;;1.25;;
11473;SDS011;5793;52.238;13.438;2023-10-08T14:48:00;2.28;;;1.30;;
11473;SDS011;5793;52.238;13.438;2023-10-08T14:50:28;2.63;;;1.05;;
11473;SDS011;5793;52.238;13.438;2023-10-08T14:52:59;4.90;;;1.27;;
11473;SDS011;5793;52.238;13.438;2023-10-08T14:55:31;2.97;;;1.15;;
11473;SDS011;5793;52.238;13.438;2023-10-08T14:58:02;1.55;;;1.00;;
11473;SDS011;5793;52.238;13.438;2023-10-08T15:00:34;3.45;;;1.30;;
11473;SDS011;5793;52.238;13.438;2023-10-08T15:03:03;1.70;;;1.10;;
11473;SDS011;5793;52.238;13.438;2023-10-08T15:05:32;4.10;;;1.00;;
11473;SDS011;5793;52.238;13.438;2023-10-08T15:08:03;3.22;;;1.40;;
11473;SDS011;5793;52.238;13.438;2023-10-08T15:10:36;2.35;;;1.17;;
11473;SDS011;5793;52.238;13.438;2023-10-08T15:13:05;2.10;;;1.10;;
11473;SDS011;5793;52.238;13.438;2023-10-08T15:15:33;3.95;;;1.63;;
11473;SDS011;5793;52.238;13.438;2023-10-08T15:18:02;2.65;;;1.42;;
11473;SDS011;5793;52.238;13.438;2023-10-08T15:20:32;7.22;;;1.20;;
11473;SDS011;5793;52.238;13.438;2023-10-08T15:23:01;1.92;;;1.10;;